createdAt,value
2024-01-11T00:01:11.610Z,62.80
2024-01-11T00:03:40.920Z,60.40
2024-01-11T00:06:09.471Z,61.70
2024-01-11T00:08:37.758Z,60.10
2024-01-11T00:11:07.548Z,62.10
2024-01-11T00:13:35.844Z,64.40
2024-01-11T00:16:05.036Z,62.10
2024-01-11T00:18:33.638Z,66.70
2024-01-11T00:21:02.041Z,63.10
2024-01-11T00:23:30.595Z,66.30
2024-01-11T00:25:58.862Z,65.60
2024-01-11T00:28:26.997Z,66.60
2024-01-11T00:30:55.257Z,59.90
2024-01-11T00:33:23.630Z,58.40
2024-01-11T00:35:51.845Z,69.00
2024-01-11T00:38:20.013Z,65.00
2024-01-11T00:40:48.547Z,62.90
2024-01-11T00:43:16.890Z,63.30
2024-01-11T00:45:47.238Z,61.00
2024-01-11T00:48:15.595Z,64.80
2024-01-11T00:50:44.108Z,55.30
2024-01-11T00:53:15.762Z,52.10
2024-01-11T00:55:44.525Z,64.60
2024-01-11T00:58:13.375Z,66.10
2024-01-11T01:00:41.601Z,59.60
2024-01-11T01:03:10.004Z,57.40
2024-01-11T01:05:38.380Z,62.90
2024-01-11T01:08:06.714Z,63.10
2024-01-11T01:10:35.132Z,65.70
2024-01-11T01:13:05.326Z,67.90
2024-01-11T01:15:33.713Z,66.40
2024-01-11T01:18:02.528Z,59.80
2024-01-11T01:20:31.244Z,63.00
2024-01-11T01:22:59.848Z,60.30
2024-01-11T01:25:28.336Z,61.40
2024-01-11T01:27:57.657Z,61.50
2024-01-11T01:30:26.131Z,66.90
2024-01-11T01:32:55.355Z,66.00
2024-01-11T01:35:23.656Z,74.20
2024-01-11T01:37:52.288Z,63.10
2024-01-11T01:40:22.760Z,54.60
2024-01-11T01:43:00.363Z,66.80
2024-01-11T01:45:28.650Z,59.40
2024-01-11T01:47:57.214Z,63.10
2024-01-11T01:50:26.800Z,56.00
2024-01-11T01:52:57.247Z,54.70
2024-01-11T01:55:26.814Z,63.50
2024-01-11T01:57:55.716Z,67.30
2024-01-11T02:00:24.343Z,63.80
2024-01-11T02:02:55.991Z,67.00
2024-01-11T02:05:25.417Z,69.40
2024-01-11T02:07:53.979Z,65.50
2024-01-11T02:10:24.103Z,74.10
2024-01-11T02:12:52.359Z,66.00
2024-01-11T02:15:20.829Z,67.00
2024-01-11T02:17:49.376Z,69.60
2024-01-11T02:20:17.869Z,63.80
2024-01-11T02:22:51.516Z,69.50
2024-01-11T02:25:19.692Z,63.70
2024-01-11T02:27:51.618Z,59.00
2024-01-11T02:30:20.116Z,70.10
2024-01-11T02:32:50.732Z,60.40
2024-01-11T02:35:20.545Z,65.30
2024-01-11T02:37:49.950Z,69.50
2024-01-11T02:40:20.447Z,68.40
2024-01-11T02:42:48.888Z,75.40
2024-01-11T02:45:17.330Z,75.00
2024-01-11T02:47:46.168Z,76.10
2024-01-11T02:50:14.837Z,68.80
2024-01-11T02:52:43.408Z,73.40
2024-01-11T02:55:12.292Z,71.80
2024-01-11T02:57:40.469Z,63.20
2024-01-11T03:00:09.355Z,62.60
2024-01-11T03:02:40.181Z,62.10
2024-01-11T03:05:09.482Z,64.80
2024-01-11T03:07:37.992Z,67.90
2024-01-11T03:10:06.766Z,63.00
2024-01-11T03:12:34.884Z,58.10
2024-01-11T03:15:03.600Z,55.40
2024-01-11T03:17:32.165Z,53.70
2024-01-11T03:20:01.456Z,61.70
2024-01-11T03:22:29.689Z,65.70
2024-01-11T03:24:58.006Z,58.50
2024-01-11T03:27:26.708Z,59.30
2024-01-11T03:29:54.865Z,63.10
2024-01-11T03:32:23.168Z,53.60
2024-01-11T03:34:51.398Z,56.80
2024-01-11T03:37:20.135Z,56.10
2024-01-11T03:39:48.252Z,57.00
2024-01-11T03:42:16.409Z,58.20
2024-01-11T03:44:44.699Z,52.80
2024-01-11T03:47:13.153Z,60.30
2024-01-11T03:49:41.613Z,60.70
2024-01-11T03:52:09.951Z,60.50
2024-01-11T03:54:38.313Z,60.80
2024-01-11T03:57:07.867Z,67.50
2024-01-11T03:59:36.447Z,62.00
2024-01-11T04:02:05.625Z,63.70
2024-01-11T04:04:34.478Z,53.10
2024-01-11T04:07:02.737Z,58.40
2024-01-11T04:09:31.119Z,60.40
2024-01-11T04:11:59.434Z,56.70
2024-01-11T04:14:27.663Z,54.60
2024-01-11T04:16:56.604Z,60.50
2024-01-11T04:19:25.086Z,59.60
2024-01-11T04:21:53.589Z,62.40
2024-01-11T04:24:21.883Z,63.60
2024-01-11T04:26:50.209Z,62.20
2024-01-11T04:29:19.828Z,63.30
2024-01-11T04:31:48.309Z,68.80
2024-01-11T04:34:16.540Z,56.20
2024-01-11T04:36:44.966Z,53.80
2024-01-11T04:39:13.436Z,70.30
2024-01-11T04:41:42.205Z,64.70
2024-01-11T04:44:11.753Z,59.90
2024-01-11T04:46:39.955Z,56.20
2024-01-11T04:49:08.455Z,59.90
2024-01-11T04:51:37.171Z,71.20
2024-01-11T04:54:05.632Z,56.20
2024-01-11T04:56:34.116Z,55.70
2024-01-11T04:59:02.813Z,57.60
2024-01-11T05:01:31.430Z,58.80
2024-01-11T05:03:59.915Z,62.60
2024-01-11T05:06:28.390Z,61.80
2024-01-11T05:08:56.571Z,65.00
2024-01-11T05:11:26.048Z,58.20
2024-01-11T05:13:54.557Z,49.90
2024-01-11T05:16:27.404Z,51.80
2024-01-11T05:18:58.167Z,61.90
2024-01-11T05:21:29.269Z,61.80
2024-01-11T05:23:57.443Z,62.10
2024-01-11T05:26:25.665Z,60.10
2024-01-11T05:28:54.219Z,48.50
2024-01-11T05:31:23.519Z,65.60
2024-01-11T05:33:51.883Z,68.40
2024-01-11T05:36:20.325Z,58.70
2024-01-11T05:38:48.808Z,59.00
2024-01-11T05:41:17.236Z,60.30
2024-01-11T05:43:45.715Z,60.80
2024-01-11T05:46:14.293Z,57.00
2024-01-11T05:48:44.069Z,60.70
2024-01-11T05:51:12.560Z,52.10
2024-01-11T05:53:41.247Z,60.40
2024-01-11T05:56:11.088Z,49.20
2024-01-11T05:58:41.138Z,55.10
2024-01-11T06:01:10.092Z,56.40
2024-01-11T06:03:39.890Z,63.90
2024-01-11T06:06:09.542Z,57.10
2024-01-11T06:08:38.493Z,57.10
2024-01-11T06:11:09.157Z,56.80
2024-01-11T06:13:38.043Z,57.70
2024-01-11T06:16:07.588Z,55.70
2024-01-11T06:18:36.855Z,59.80
2024-01-11T06:21:05.230Z,62.50
2024-01-11T06:23:33.508Z,55.40
2024-01-11T06:26:01.888Z,63.50
2024-01-11T06:28:31.726Z,55.60
2024-01-11T06:31:01.198Z,58.70
2024-01-11T06:33:29.737Z,57.80
2024-01-11T06:35:59.690Z,52.70
2024-01-11T06:38:28.028Z,57.70
2024-01-11T06:40:56.402Z,61.70
2024-01-11T06:43:24.712Z,53.30
2024-01-11T06:45:54.297Z,56.00
2024-01-11T06:48:22.845Z,58.30
2024-01-11T06:50:51.534Z,55.90
2024-01-11T06:53:19.823Z,50.70
2024-01-11T06:55:48.926Z,56.40
2024-01-11T06:58:17.542Z,48.80
2024-01-11T07:00:45.866Z,48.40
2024-01-11T07:03:14.158Z,51.40
2024-01-11T07:05:42.974Z,46.70
2024-01-11T07:08:11.758Z,56.10
2024-01-11T07:10:40.005Z,45.20
2024-01-11T07:13:08.351Z,50.50
2024-01-11T07:15:36.556Z,57.20
2024-01-11T07:18:05.651Z,49.40
2024-01-11T07:20:34.959Z,45.70
2024-01-11T07:23:03.660Z,54.20
2024-01-11T07:25:32.049Z,49.10
2024-01-11T07:28:00.380Z,45.40
2024-01-11T07:30:28.731Z,46.70
2024-01-11T07:32:57.100Z,45.50
2024-01-11T07:35:25.972Z,45.00
2024-01-11T07:37:55.469Z,52.40
2024-01-11T07:40:27.094Z,68.50
2024-01-11T07:42:55.267Z,55.00
2024-01-11T07:45:24.335Z,66.20
2024-01-11T07:47:52.780Z,60.10
2024-01-11T07:50:21.510Z,59.80
2024-01-11T07:52:50.199Z,57.70
2024-01-11T07:55:19.402Z,60.00
2024-01-11T07:57:47.531Z,61.30
2024-01-11T08:00:16.430Z,60.40
2024-01-11T08:02:44.962Z,80.90
2024-01-11T08:05:13.555Z,119.00
2024-01-11T08:07:43.409Z,114.10
2024-01-11T08:10:11.885Z,144.30
2024-01-11T08:12:40.050Z,116.10
2024-01-11T08:15:13.856Z,144.80
2024-01-11T08:17:49.671Z,141.70
2024-01-11T08:20:18.030Z,156.00
2024-01-11T08:22:47.863Z,144.30
2024-01-11T08:25:16.532Z,138.00
2024-01-11T08:27:44.756Z,156.30
2024-01-11T08:30:14.087Z,168.30
2024-01-11T08:32:43.286Z,167.70
2024-01-11T08:35:13.488Z,161.30
2024-01-11T08:37:41.920Z,153.40
2024-01-11T08:40:11.113Z,148.40
2024-01-11T08:42:40.746Z,156.30
2024-01-11T08:45:10.016Z,147.80
2024-01-11T08:47:40.048Z,150.00
2024-01-11T08:50:09.040Z,153.60
2024-01-11T08:52:39.002Z,158.70
2024-01-11T08:55:10.366Z,165.60
2024-01-11T08:57:38.707Z,187.20
2024-01-11T09:00:08.191Z,169.70
2024-01-11T09:02:36.682Z,163.60
2024-01-11T09:05:09.353Z,138.00
2024-01-11T09:07:38.842Z,140.90
2024-01-11T09:10:12.721Z,139.30
2024-01-11T09:12:41.216Z,155.80
2024-01-11T09:15:09.770Z,155.70
2024-01-11T09:17:39.158Z,154.10
2024-01-11T09:20:08.401Z,157.60
2024-01-11T09:22:36.612Z,160.60
2024-01-11T09:25:05.681Z,144.60
2024-01-11T09:27:34.068Z,146.00
2024-01-11T09:30:02.742Z,145.80
2024-01-11T09:32:32.455Z,138.60
2024-01-11T09:35:00.895Z,142.80
2024-01-11T09:37:29.424Z,140.00
2024-01-11T09:39:57.544Z,122.20
2024-01-11T09:42:25.928Z,139.80
2024-01-11T09:44:56.730Z,136.10
2024-01-11T09:47:26.716Z,139.20
2024-01-11T09:49:58.264Z,126.20
2024-01-11T09:52:27.536Z,133.00
2024-01-11T09:54:56.350Z,137.80
2024-01-11T09:57:29.600Z,127.60
2024-01-11T09:59:59.192Z,128.90
2024-01-11T10:02:28.247Z,128.30
2024-01-11T10:04:57.863Z,132.80
2024-01-11T10:07:26.477Z,131.60
2024-01-11T10:09:54.998Z,133.30
2024-01-11T10:12:26.637Z,133.80
2024-01-11T10:14:55.712Z,133.80
2024-01-11T10:17:25.796Z,122.10
2024-01-11T10:19:56.545Z,125.00
2024-01-11T10:22:27.234Z,93.50
2024-01-11T10:25:16.904Z,82.90
2024-01-11T10:27:49.322Z,63.60
2024-01-11T10:30:18.992Z,42.00
2024-01-11T10:32:48.609Z,40.70
2024-01-11T10:35:19.432Z,44.30
2024-01-11T10:37:55.023Z,38.10
2024-01-11T10:40:26.997Z,44.10
2024-01-11T10:43:00.485Z,45.20
2024-01-11T10:45:31.930Z,44.40
2024-01-11T10:48:07.035Z,41.60
2024-01-11T10:50:42.982Z,36.40
2024-01-11T10:53:33.657Z,31.90
2024-01-11T10:56:05.100Z,38.90
2024-01-11T10:58:36.472Z,38.10
2024-01-11T11:01:07.389Z,43.20
2024-01-11T11:03:37.128Z,41.90
2024-01-11T11:06:07.947Z,40.60
2024-01-11T11:08:38.463Z,48.30
2024-01-11T11:11:07.709Z,48.00
2024-01-11T11:13:36.652Z,44.90
2024-01-11T11:16:05.692Z,42.20
2024-01-11T11:18:36.648Z,52.90
2024-01-11T11:21:12.341Z,45.90
2024-01-11T11:23:40.921Z,54.40
2024-01-11T11:26:17.751Z,45.40
2024-01-11T11:28:49.642Z,42.70
2024-01-11T11:31:58.395Z,49.90
2024-01-11T11:34:48.194Z,52.40
2024-01-11T11:37:25.387Z,101.20
2024-01-11T11:39:53.774Z,118.70
2024-01-11T11:42:27.159Z,109.60
2024-01-11T11:44:55.501Z,119.70
2024-01-11T11:47:25.082Z,117.50
2024-01-11T11:50:12.914Z,101.20
2024-01-11T11:52:45.003Z,117.50
2024-01-11T11:55:14.095Z,119.20
2024-01-11T11:57:44.355Z,116.00
2024-01-11T12:00:14.346Z,70.70
2024-01-11T12:02:43.291Z,71.90
2024-01-11T12:05:11.981Z,59.80
2024-01-11T12:07:40.427Z,46.70
2024-01-11T12:10:08.991Z,49.40
2024-01-11T12:12:38.516Z,49.20
2024-01-11T12:15:07.317Z,44.10
2024-01-11T12:17:35.895Z,46.60
2024-01-11T12:20:04.976Z,44.80
2024-01-11T12:22:33.527Z,51.40
2024-01-11T12:25:03.216Z,44.00
2024-01-11T12:27:32.145Z,53.90
2024-01-11T12:30:02.968Z,44.40
2024-01-11T12:32:31.744Z,45.20
2024-01-11T12:35:00.390Z,50.90
2024-01-11T12:37:31.880Z,47.80
2024-01-11T12:40:00.646Z,45.60
2024-01-11T12:42:29.126Z,38.00
2024-01-11T12:44:59.494Z,36.10
2024-01-11T12:47:29.135Z,43.10
2024-01-11T12:49:57.721Z,43.70
2024-01-11T12:52:28.658Z,47.50
2024-01-11T12:55:01.150Z,44.40
2024-01-11T12:57:30.520Z,48.20
2024-01-11T13:00:19.612Z,48.30
2024-01-11T13:02:49.798Z,49.20
2024-01-11T13:05:18.436Z,57.70
2024-01-11T13:07:46.672Z,56.20
2024-01-11T13:10:16.149Z,93.30
2024-01-11T13:12:48.372Z,113.30
2024-01-11T13:15:19.805Z,106.40
2024-01-11T13:17:48.053Z,119.20
2024-01-11T13:20:16.874Z,118.20
2024-01-11T13:22:45.520Z,100.60
2024-01-11T13:25:14.122Z,107.20
2024-01-11T13:27:42.426Z,103.50
2024-01-11T13:30:11.232Z,93.30
2024-01-11T13:32:39.579Z,108.00
2024-01-11T13:35:08.504Z,75.20
2024-01-11T13:37:37.044Z,87.40
2024-01-11T13:40:06.049Z,91.80
2024-01-11T13:42:34.809Z,111.60
2024-01-11T13:45:04.408Z,125.50
2024-01-11T13:47:32.601Z,139.00
2024-01-11T13:50:01.238Z,117.20
2024-01-11T13:52:29.755Z,115.90
2024-01-11T13:54:57.950Z,112.20
2024-01-11T13:57:26.107Z,114.10
2024-01-11T13:59:54.290Z,118.90
2024-01-11T14:02:22.661Z,116.10
2024-01-11T14:04:50.924Z,154.80
2024-01-11T14:07:19.782Z,155.20
2024-01-11T14:09:48.118Z,153.40
2024-01-11T14:12:17.028Z,158.60
2024-01-11T14:14:45.187Z,184.90
2024-01-11T14:17:13.773Z,162.10
2024-01-11T14:19:42.156Z,146.40
2024-01-11T14:22:10.771Z,137.70
2024-01-11T14:24:39.156Z,129.50
2024-01-11T14:27:08.510Z,142.50
2024-01-11T14:29:36.927Z,136.30
2024-01-11T14:32:06.825Z,134.10
2024-01-11T14:34:35.424Z,101.70
2024-01-11T14:37:04.009Z,76.30
2024-01-11T14:39:32.872Z,80.20
2024-01-11T14:42:01.590Z,93.10
2024-01-11T14:44:29.768Z,99.80
2024-01-11T14:46:58.803Z,111.70
2024-01-11T14:49:27.772Z,113.00
2024-01-11T14:51:56.589Z,138.00
2024-01-11T14:54:24.949Z,144.00
2024-01-11T14:56:53.631Z,115.00
2024-01-11T14:59:22.060Z,102.60
2024-01-11T15:01:50.439Z,111.80
2024-01-11T15:04:19.369Z,83.00
2024-01-11T15:06:47.758Z,74.40
2024-01-11T15:09:16.607Z,83.20
2024-01-11T15:11:45.337Z,80.20
2024-01-11T15:14:15.219Z,83.70
2024-01-11T15:16:46.966Z,64.90
2024-01-11T15:19:15.699Z,65.10
2024-01-11T15:21:49.140Z,59.80
2024-01-11T15:24:20.724Z,65.00
2024-01-11T15:26:50.119Z,58.30
2024-01-11T15:29:19.447Z,58.80
2024-01-11T15:31:50.465Z,58.30
2024-01-11T15:34:20.262Z,54.60
2024-01-11T15:36:49.466Z,58.40
2024-01-11T15:39:25.934Z,59.50
2024-01-11T15:41:58.969Z,62.60
2024-01-11T15:44:29.827Z,68.10
2024-01-11T15:46:58.611Z,62.50
2024-01-11T15:49:28.210Z,62.80
2024-01-11T15:51:57.304Z,55.30
2024-01-11T15:54:26.045Z,50.00
2024-01-11T15:56:55.536Z,49.10
2024-01-11T15:59:25.404Z,63.60
2024-01-11T16:02:03.348Z,66.00
2024-01-11T16:04:36.720Z,63.20
2024-01-11T16:07:05.526Z,66.10
2024-01-11T16:09:33.899Z,76.80
2024-01-11T16:12:05.612Z,82.80
2024-01-11T16:14:35.318Z,85.90
2024-01-11T16:17:04.289Z,85.10
2024-01-11T16:19:35.158Z,87.30
2024-01-11T16:22:04.665Z,92.70
2024-01-11T16:24:32.900Z,83.00
2024-01-11T16:27:01.189Z,83.10
2024-01-11T16:29:29.811Z,78.70
2024-01-11T16:31:58.676Z,69.70
2024-01-11T16:34:27.300Z,66.00
2024-01-11T16:36:55.577Z,56.10
2024-01-11T16:39:23.661Z,54.30
2024-01-11T16:41:53.250Z,57.10
2024-01-11T16:44:21.454Z,47.20
2024-01-11T16:46:49.947Z,34.10
2024-01-11T16:49:18.922Z,24.20
2024-01-11T16:51:50.629Z,28.10
2024-01-11T16:54:19.969Z,37.30
2024-01-11T16:56:49.320Z,29.70
2024-01-11T16:59:19.433Z,25.60
2024-01-11T17:01:48.332Z,14.30
2024-01-11T17:04:17.170Z,15.60
2024-01-11T17:06:45.839Z,15.40
2024-01-11T17:09:14.409Z,20.80
2024-01-11T17:11:43.780Z,16.40
2024-01-11T17:14:12.773Z,14.90
2024-01-11T17:16:41.516Z,15.80
2024-01-11T17:19:09.951Z,14.30
2024-01-11T17:21:38.137Z,9.80
2024-01-11T17:24:06.842Z,12.70
2024-01-11T17:26:35.484Z,12.50
2024-01-11T17:29:04.168Z,14.70
2024-01-11T17:31:32.334Z,13.70
2024-01-11T17:34:01.041Z,11.20
2024-01-11T17:36:29.491Z,9.50
2024-01-11T17:38:57.940Z,8.60
2024-01-11T17:41:26.571Z,11.60
2024-01-11T17:43:55.051Z,10.00
2024-01-11T17:46:29.347Z,13.70
2024-01-11T17:48:58.166Z,10.40
2024-01-11T17:51:27.253Z,13.70
2024-01-11T17:53:55.774Z,8.90
2024-01-11T17:56:24.530Z,10.80
2024-01-11T17:58:53.449Z,10.40
2024-01-11T18:01:23.649Z,8.80
2024-01-11T18:03:51.928Z,9.40
2024-01-11T18:06:20.343Z,11.30
2024-01-11T18:08:49.942Z,7.10
2024-01-11T18:11:18.522Z,13.80
2024-01-11T18:13:47.297Z,10.80
2024-01-11T18:16:15.468Z,8.50
2024-01-11T18:18:45.033Z,12.40
2024-01-11T18:21:13.563Z,16.70
2024-01-11T18:23:43.996Z,24.00
2024-01-11T18:26:12.749Z,9.00
2024-01-11T18:28:41.171Z,10.10
2024-01-11T18:31:10.237Z,9.90
2024-01-11T18:33:38.675Z,9.20
2024-01-11T18:36:08.529Z,8.80
2024-01-11T18:38:37.203Z,11.10
2024-01-11T18:41:07.037Z,10.40
2024-01-11T18:43:35.565Z,8.10
2024-01-11T18:46:04.169Z,9.70
2024-01-11T18:48:39.172Z,13.00
2024-01-11T18:51:08.250Z,8.00
2024-01-11T18:53:36.486Z,23.60
2024-01-11T18:56:12.918Z,10.60
2024-01-11T18:58:41.486Z,15.30
2024-01-11T19:01:10.635Z,26.50
2024-01-11T19:03:40.241Z,12.10
2024-01-11T19:06:09.226Z,11.30
2024-01-11T19:08:37.770Z,7.80
2024-01-11T19:11:07.352Z,9.90
2024-01-11T19:13:36.154Z,11.30
2024-01-11T19:16:05.540Z,9.80
2024-01-11T19:18:34.056Z,11.80
2024-01-11T19:21:02.945Z,14.70
2024-01-11T19:23:31.461Z,9.40
2024-01-11T19:26:00.059Z,12.90
2024-01-11T19:28:28.348Z,11.20
2024-01-11T19:30:57.318Z,10.20
2024-01-11T19:33:26.847Z,9.70
2024-01-11T19:35:57.366Z,11.50
2024-01-11T19:38:25.901Z,10.90
2024-01-11T19:40:54.485Z,8.40
2024-01-11T19:43:23.465Z,11.40
2024-01-11T19:45:51.646Z,8.90
2024-01-11T19:48:20.186Z,11.20
2024-01-11T19:50:48.999Z,12.20
2024-01-11T19:53:17.567Z,12.10
2024-01-11T19:55:46.292Z,10.30
2024-01-11T19:58:14.693Z,13.50
2024-01-11T20:00:43.234Z,16.20
2024-01-11T20:03:11.680Z,10.50
2024-01-11T20:05:40.074Z,10.40
2024-01-11T20:08:08.620Z,13.60
2024-01-11T20:10:36.894Z,7.90
2024-01-11T20:13:05.712Z,15.30
2024-01-11T20:15:33.826Z,12.30
2024-01-11T20:18:03.107Z,10.60
2024-01-11T20:20:31.445Z,10.90
2024-01-11T20:22:59.654Z,10.70
2024-01-11T20:25:28.739Z,12.40
2024-01-11T20:27:57.118Z,11.20
2024-01-11T20:30:25.612Z,11.90
2024-01-11T20:32:54.239Z,13.60
2024-01-11T20:35:23.466Z,11.30
2024-01-11T20:37:51.900Z,9.90
2024-01-11T20:40:20.546Z,15.00
2024-01-11T20:42:48.841Z,11.70
2024-01-11T20:45:17.622Z,13.20
2024-01-11T20:47:46.284Z,12.90
2024-01-11T20:50:14.785Z,12.80
2024-01-11T20:52:44.260Z,13.70
2024-01-11T20:55:12.594Z,18.50
2024-01-11T20:57:40.722Z,17.90
2024-01-11T21:00:10.466Z,14.50
2024-01-11T21:02:39.584Z,14.50
2024-01-11T21:05:08.670Z,19.40
2024-01-11T21:07:37.044Z,13.80
2024-01-11T21:10:06.712Z,20.50
2024-01-11T21:12:35.452Z,17.00
2024-01-11T21:15:04.347Z,13.30
2024-01-11T21:17:32.820Z,15.00
2024-01-11T21:20:02.156Z,17.00
2024-01-11T21:22:30.416Z,12.20
2024-01-11T21:24:58.677Z,15.50
2024-01-11T21:27:26.930Z,13.70
2024-01-11T21:29:55.209Z,15.30
2024-01-11T21:32:23.972Z,15.70
2024-01-11T21:34:52.569Z,11.70
2024-01-11T21:37:20.969Z,13.10
2024-01-11T21:39:49.497Z,17.60
2024-01-11T21:42:17.714Z,12.10
2024-01-11T21:44:46.210Z,16.90
2024-01-11T21:47:14.549Z,15.90
2024-01-11T21:49:42.820Z,17.80
2024-01-11T21:52:11.096Z,21.30
2024-01-11T21:54:39.476Z,19.30
2024-01-11T21:57:07.598Z,22.90
2024-01-11T21:59:36.696Z,21.60
2024-01-11T22:02:05.870Z,20.50
2024-01-11T22:04:34.066Z,23.10
2024-01-11T22:07:02.449Z,18.70
2024-01-11T22:09:30.704Z,24.10
2024-01-11T22:11:59.217Z,22.20
2024-01-11T22:14:27.769Z,28.20
2024-01-11T22:16:56.137Z,22.20
2024-01-11T22:19:24.523Z,24.70
2024-01-11T22:21:52.825Z,18.70
2024-01-11T22:24:21.040Z,25.00
2024-01-11T22:26:49.616Z,29.00
2024-01-11T22:29:18.150Z,23.10
2024-01-11T22:31:46.521Z,23.40
2024-01-11T22:34:15.226Z,21.90
2024-01-11T22:36:47.635Z,22.50
2024-01-11T22:39:15.813Z,23.10
2024-01-11T22:41:43.952Z,17.40
2024-01-11T22:44:12.143Z,23.00
2024-01-11T22:46:40.592Z,22.70
2024-01-11T22:49:10.040Z,23.20
2024-01-11T22:51:38.722Z,24.40
2024-01-11T22:54:08.228Z,20.50
2024-01-11T22:56:38.843Z,22.20
2024-01-11T22:59:10.802Z,24.20
2024-01-11T23:01:42.561Z,26.90
2024-01-11T23:04:10.676Z,21.30
2024-01-11T23:06:39.140Z,24.00
2024-01-11T23:09:11.420Z,26.40
2024-01-11T23:11:39.582Z,24.90
2024-01-11T23:14:09.453Z,30.10
2024-01-11T23:16:37.760Z,29.10
2024-01-11T23:19:06.826Z,26.30
2024-01-11T23:21:35.619Z,27.30
2024-01-11T23:24:04.327Z,26.20
2024-01-11T23:26:32.974Z,29.50
2024-01-11T23:29:01.463Z,28.90
2024-01-11T23:31:29.776Z,32.90
2024-01-11T23:33:58.311Z,27.80
2024-01-11T23:36:27.356Z,25.30
2024-01-11T23:38:56.283Z,28.40
2024-01-11T23:41:24.508Z,34.60
2024-01-11T23:43:52.904Z,30.30
2024-01-11T23:46:21.017Z,32.50
2024-01-11T23:48:49.414Z,30.50
2024-01-11T23:51:18.131Z,29.20
2024-01-11T23:53:46.689Z,29.50
2024-01-11T23:56:14.917Z,28.90
2024-01-11T23:58:43.106Z,33.80
